Date,TemperatureHighF,TemperatureAvgF,TemperatureLowF,DewpointHighF,DewpointAvgF,DewpointLowF,HumidityHigh,HumidityAvg,HumidityLow,PressureMaxIn,PressureMinIn,WindSpeedMaxMPH,WindSpeedAvgMPH,GustSpeedMaxMPH,PrecipitationSumIn
2013-1-1,43.3,40.1,34.2,43.0,39.6,33.6,99,98,95,30.15,29.99,12,1,12,0.35
2013-1-2,34.2,31.9,29.5,33.6,29.7,27.8,98,92,82,30.26,30.12,9,1,9,0.00
2013-1-3,45.7,32.2,26.3,30.5,26.1,23.1,96,80,44,30.42,30.22,5,0,5,0.00
2013-1-4,48.6,32.0,20.8,32.0,25.0,19.3,98,78,44,30.49,30.39,9,0,9,0.00
2013-1-5,47.1,35.7,21.2,34.9,28.1,19.6,97,76,50,30.43,30.24,7,0,7,0.00
2013-1-6,51.4,41.4,26.2,39.6,34.2,23.9,91,76,52,30.38,30.15,12,2,12,0.00
2013-1-7,51.6,31.9,20.2,33.9,26.3,18.5,97,82,47,30.44,30.27,5,0,5,0.00
2013-1-8,60.8,39.5,23.0,44.2,33.9,21.5,99,83,49,30.36,30.23,8,1,8,0.00
2013-1-9,54.6,50.8,42.0,54.6,50.2,40.1,100,98,91,30.40,30.27,9,0,9,0.69
2013-1-10,66.1,59.3,53.3,62.5,57.7,53.3,100,95,83,30.38,29.98,14,3,14,0.11
2013-1-11,71.7,65.7,61.5,64.2,62.0,60.0,98,88,71,30.04,29.94,17,4,17,0.09
2013-1-12,68.5,67.1,65.3,66.8,64.8,62.1,100,92,80,30.01,29.81,13,4,13,0.59
2013-1-13,70.2,57.2,37.1,66.6,54.6,35.5,100,91,78,30.20,29.79,14,4,14,1.29
2013-1-14,37.6,32.7,30.1,35.7,30.3,27.1,96,91,83,30.37,30.19,16,4,16,0.00
2013-1-15,35.3,33.7,31.0,35.0,32.9,30.0,99,97,94,30.25,30.00,13,2,13,0.87
2013-1-16,36.6,35.2,34.2,36.1,34.8,33.8,99,98,97,30.14,29.99,7,0,7,0.32
2013-1-17,46.7,38.5,34.2,37.2,33.6,30.3,99,83,67,30.43,30.03,21,4,21,0.02
2013-1-18,53.2,36.3,25.2,36.5,29.3,24.0,98,79,39,30.57,30.37,6,1,6,0.00
2013-1-19,57.6,40.3,24.4,36.5,31.0,23.2,98,73,41,30.39,30.15,12,2,12,0.00
2013-1-20,57.1,40.2,29.2,38.7,31.0,22.8,98,73,31,30.26,30.16,10,1,10,0.00
2013-1-21,41.8,32.0,24.8,24.4,19.8,14.7,85,62,38,30.31,30.16,12,1,12,0.00
2013-1-22,33.9,27.1,20.0,16.7,10.4,3.5,73,51,31,30.45,30.29,8,1,8,0.00
2013-1-23,53.4,36.0,22.4,34.0,23.7,10.7,91,63,43,30.38,30.14,7,1,7,0.00
2013-1-24,37.8,32.1,27.6,33.6,18.1,10.8,97,58,35,30.48,30.20,16,3,16,0.00
2013-1-25,41.0,34.6,30.4,38.7,31.4,12.2,98,89,46,30.30,30.01,12,1,12,0.63
2013-1-26,49.6,36.2,28.1,39.2,31.6,26.9,97,85,52,30.36,30.25,6,0,6,0.00
2013-1-27,51.7,41.3,25.6,44.2,36.6,24.4,98,85,66,30.36,30.23,9,2,9,0.00
2013-1-28,60.1,54.8,48.9,54.0,48.8,39.1,96,80,68,30.25,30.12,13,4,13,0.00
2013-1-29,70.4,61.5,46.8,64.2,58.4,45.4,99,90,80,30.13,29.60,21,5,21,0.00
2013-1-30,72.4,54.6,36.8,64.2,50.2,26.8,99,86,66,29.89,29.43,22,6,22,0.78
2013-1-31,47.0,39.1,32.6,37.5,28.0,23.9,96,65,46,30.19,29.89,12,3,12,0.00
2013-2-1,33.6,24.5,17.4,31.0,17.8,11.1,94,76,55,30.51,30.20,9,1,9,0.00
2013-2-2,44.2,31.4,19.5,37.2,27.9,17.6,95,87,70,30.35,30.07,8,1,8,0.00
2013-2-3,48.8,37.5,25.8,37.0,31.1,24.1,95,79,54,30.17,30.01,12,2,12,0.00
2013-2-4,57.1,40.9,24.5,36.5,29.6,23.0,96,69,34,30.14,29.91,12,2,12,0.00
2013-2-5,64.5,49.7,34.7,45.9,40.2,32.3,91,72,42,30.04,29.90,6,1,6,0.00
2013-2-6,60.3,43.7,31.0,41.8,35.6,29.7,99,76,41,30.21,30.04,5,0,5,0.00
2013-2-7,64.3,50.3,40.0,49.3,43.6,36.6,94,79,52,30.10,29.89,9,1,9,0.00
2013-2-8,51.5,43.7,36.3,49.2,39.7,30.8,98,86,74,30.32,29.86,16,3,16,0.00
2013-2-9,57.7,42.1,34.6,38.1,33.1,29.5,91,72,40,30.36,30.14,10,2,10,0.00
2013-2-10,59.5,52.7,40.5,56.9,44.0,35.8,97,75,45,30.15,29.85,18,4,18,0.13
2013-2-11,59.3,50.8,38.8,57.6,40.9,28.6,96,71,38,30.15,29.90,7,1,7,0.00
2013-2-12,53.6,43.6,34.7,42.3,36.8,32.6,97,79,49,30.16,29.80,7,0,7,0.02
2013-2-13,43.7,40.0,32.1,42.5,38.4,31.0,98,94,84,30.01,29.69,11,2,11,0.25
2013-2-14,61.2,42.9,28.7,43.9,35.6,28.0,99,79,39,30.05,29.95,10,1,10,0.01
2013-2-15,51.6,42.7,33.4,40.3,33.1,23.3,96,70,47,30.17,30.01,15,2,15,0.00
2013-2-16,39.8,31.0,20.2,24.7,18.9,10.9,89,63,36,30.22,30.11,12,2,12,0.00
2013-2-17,47.7,31.0,15.7,26.0,19.6,13.3,95,67,32,30.30,30.19,7,1,7,0.00
2013-2-18,62.8,45.6,26.5,44.2,32.2,22.6,93,63,40,30.20,29.85,20,6,20,0.20
2013-2-19,50.1,43.2,26.7,46.5,32.3,19.2,98,69,33,30.22,29.85,13,3,13,0.16
2013-2-20,36.1,30.1,23.3,23.1,20.4,17.6,88,68,49,30.35,30.22,8,1,8,0.00
2013-2-21,51.2,37.3,25.2,46.1,28.9,20.0,99,74,38,30.25,29.86,9,1,9,0.55
2013-2-22,60.4,53.3,47.0,51.2,48.6,43.1,97,85,66,30.01,29.85,12,4,12,0.01
2013-2-23,53.9,43.5,31.1,42.9,36.4,29.0,93,77,53,30.01,29.87,12,1,12,0.00
2013-2-24,55.4,38.5,26.6,32.6,28.8,25.4,97,72,34,30.13,29.99,9,1,9,0.00
2013-2-25,67.5,48.5,29.2,48.7,35.7,26.5,92,64,31,30.02,29.52,14,3,14,0.00
2013-2-26,54.6,48.4,41.3,49.8,43.6,36.3,93,84,69,29.71,29.38,14,5,14,0.07
2013-2-27,42.7,41.1,39.6,36.7,34.4,31.5,83,77,70,29.90,29.71,9,3,9,0.00
2013-2-28,40.3,37.8,34.8,33.1,30.2,27.3,86,74,61,30.05,29.86,10,1,10,0.00
2013-3-1,40.2,36.4,33.3,34.5,33.0,31.6,97,88,74,30.06,30.00,5,0,5,0.04
2013-3-2,35.5,33.1,30.7,33.8,31.0,27.3,97,92,85,30.16,30.02,12,1,12,0.08
2013-3-3,42.9,34.1,26.3,27.8,23.1,14.4,90,67,32,30.17,30.08,12,1,12,0.01
2013-3-4,58.1,45.4,30.4,37.2,30.1,25.1,88,58,35,30.15,29.85,12,2,12,0.00
2013-3-5,56.7,47.9,34.0,56.0,43.0,23.6,98,84,52,30.00,29.63,16,5,16,0.51
2013-3-6,41.2,35.0,27.8,31.6,28.1,25.2,93,76,65,30.30,29.99,15,4,15,0.04
2013-3-7,44.5,34.3,26.3,33.7,28.7,24.6,94,80,62,30.39,30.30,10,1,10,0.06
2013-3-8,58.2,39.3,23.6,34.7,29.3,22.4,98,72,31,30.41,30.25,10,1,10,0.01
2013-3-9,65.5,51.8,32.8,38.8,35.0,29.9,93,58,30,30.25,30.03,10,2,10,0.00
2013-3-10,70.6,63.9,54.2,51.1,40.6,35.8,55,43,35,30.04,29.76,21,8,21,0.00
2013-3-11,67.8,50.1,40.4,54.6,45.9,33.3,97,86,55,29.97,29.72,20,3,20,0.29
2013-3-12,55.6,44.6,35.1,37.1,32.6,28.2,85,65,40,30.14,29.97,10,1,10,0.02
2013-3-13,46.6,39.1,28.5,33.8,27.0,21.8,89,63,42,30.40,30.12,15,2,15,0.00
2013-3-14,53.7,35.5,21.1,38.4,26.7,19.1,95,75,31,30.45,30.22,7,1,7,0.31
2013-3-15,74.8,55.9,32.3,50.7,42.6,31.3,97,65,39,30.22,29.83,10,2,10,0.25
2013-3-16,77.3,66.7,57.9,56.8,50.9,46.4,69,57,44,29.89,29.76,12,4,12,0.00
2013-3-17,70.0,54.9,47.6,56.3,48.5,44.4,94,80,59,29.93,29.78,12,1,12,0.00
2013-3-18,64.6,59.0,45.9,60.5,55.1,42.2,99,87,78,29.97,29.67,16,4,16,0.05
2013-3-19,57.1,45.1,31.8,42.2,29.1,17.1,99,60,23,30.17,29.97,13,2,13,0.01
2013-3-20,56.3,41.4,28.8,32.2,28.1,18.3,92,62,32,30.18,29.98,13,2,13,0.17
2013-3-21,44.9,33.0,20.3,25.3,18.9,13.8,88,58,34,30.09,29.96,10,1,10,0.18
2013-3-22,49.6,40.7,28.4,39.0,28.5,23.0,85,63,46,30.05,29.96,5,0,5,0.08
2013-3-23,56.3,48.0,41.5,48.1,43.8,38.6,95,86,72,29.98,29.70,9,1,9,0.01
2013-3-24,61.4,48.7,37.6,56.3,45.2,29.0,100,88,68,29.72,29.36,15,4,15,0.02
2013-3-25,38.8,36.2,33.6,31.6,28.5,26.6,92,74,64,30.12,29.70,13,4,13,0.00
2013-3-26,39.7,36.0,32.4,32.6,30.5,27.8,94,81,65,30.34,30.12,9,1,9,0.00
2013-3-27,53.1,38.4,26.0,32.6,28.3,24.4,96,71,37,30.41,30.28,9,1,9,0.11
2013-3-28,61.3,43.7,29.3,39.7,33.3,27.5,96,71,37,30.38,30.25,7,1,7,0.26
2013-3-29,52.6,46.7,38.9,50.0,43.9,36.2,98,90,73,30.32,30.17,5,0,5,0.15
2013-3-30,63.9,53.2,44.2,54.4,49.5,43.7,100,89,58,30.20,29.90,5,0,5,0.03
2013-3-31,59.6,54.5,42.1,57.1,53.1,41.3,98,95,89,29.91,29.84,8,0,8,0.01
2013-4-1,64.3,50.9,38.9,48.2,40.7,32.4,100,71,43,30.14,29.89,12,2,12,0.00
2013-4-2,53.4,44.4,35.9,35.1,29.5,22.7,80,57,33,30.26,30.13,12,1,12,0.00
2013-4-3,57.1,47.2,32.6,33.2,26.6,22.6,81,47,30,30.28,30.15,14,2,14,0.01
2013-4-4,48.4,45.8,41.5,47.2,40.7,27.8,98,84,46,30.16,29.98,4,0,4,0.00
2013-4-5,67.7,52.9,42.4,46.9,42.2,32.8,99,73,30,30.10,30.00,12,1,12,0.00
2013-4-6,72.7,55.9,36.7,48.8,40.9,35.7,98,64,31,30.15,29.95,12,2,12,0.01
2013-4-7,74.8,62.7,50.7,53.8,47.9,42.0,88,60,40,30.06,29.94,14,4,14,0.00
2013-4-8,77.6,64.5,47.6,59.3,54.2,46.0,99,72,48,30.02,29.89,15,3,15,0.00
2013-4-9,79.8,65.3,52.1,64.5,58.3,50.7,99,79,54,30.11,29.92,12,2,12,0.00
2013-4-10,85.7,73.4,55.7,62.9,59.2,53.9,97,64,42,30.01,29.75,12,3,12,0.00
2013-4-11,75.7,67.0,53.0,63.8,60.2,52.2,99,80,62,29.77,29.51,15,3,15,0.00
2013-4-12,65.2,53.5,43.2,52.2,44.3,38.5,98,74,44,29.95,29.65,10,1,10,0.00
2013-4-13,69.4,55.6,39.2,47.2,42.0,36.8,96,65,34,30.11,29.96,9,1,9,0.00
2013-4-14,73.4,56.3,42.1,53.8,47.7,40.9,99,76,35,29.98,29.85,17,2,17,0.00
2013-4-15,80.0,68.8,56.5,63.9,58.7,53.1,93,72,50,29.98,29.86,8,2,8,0.00
2013-4-16,82.1,72.3,63.3,70.2,65.3,59.7,92,79,65,30.10,29.96,10,3,10,0.00
2013-4-17,87.0,75.2,63.8,72.2,66.2,62.1,99,75,49,30.11,29.93,12,2,12,0.00
2013-4-18,82.3,74.7,67.0,65.3,62.5,59.6,90,67,49,29.93,29.57,15,6,15,0.00
2013-4-19,74.2,49.6,36.9,66.5,43.9,34.9,98,82,56,30.12,29.56,12,2,12,0.00
2013-4-20,63.4,48.0,31.9,42.1,35.6,30.5,99,68,32,30.29,30.12,12,2,12,0.00
2013-4-21,68.9,52.5,35.2,48.8,40.3,33.9,98,68,31,30.38,30.20,9,1,9,0.00
2013-4-22,74.5,57.3,39.9,51.7,45.5,38.7,99,70,35,30.27,30.05,9,1,9,0.00
2013-4-23,74.6,62.1,45.3,57.3,51.0,44.2,98,69,49,30.13,29.93,12,3,12,0.00
2013-4-24,66.3,55.7,46.9,59.8,50.4,41.1,98,83,72,30.27,29.84,12,2,12,0.00
2013-4-25,65.6,51.0,35.9,44.2,39.2,33.6,98,68,32,30.38,30.26,12,1,12,0.00
2013-4-26,64.3,52.4,39.3,50.8,44.9,38.0,98,78,49,30.41,30.24,12,1,12,0.00
2013-4-27,61.0,55.1,51.0,59.0,54.6,50.1,100,98,92,30.33,29.92,10,1,10,0.00
2013-4-28,68.6,61.9,54.8,64.9,58.7,53.6,100,90,72,29.99,29.85,12,0,12,0.00
2013-4-29,72.7,61.0,51.9,61.4,55.7,50.8,100,85,53,30.00,29.88,6,0,6,0.00
2013-4-30,79.2,63.9,46.3,62.3,54.7,45.5,100,76,44,30.01,29.91,7,1,7,0.00
2013-5-1,79.7,66.7,52.6,66.3,59.8,51.8,100,81,53,30.10,30.00,6,1,6,0.00
2013-5-2,76.0,66.9,56.3,64.2,59.9,55.4,99,80,59,30.13,30.01,9,1,9,0.00
2013-5-3,75.4,66.3,60.1,60.6,57.7,55.1,93,75,54,30.02,29.83,14,4,14,0.00
2013-5-4,60.1,47.9,45.2,58.6,47.0,44.4,99,97,90,29.96,29.84,4,0,4,0.00
2013-5-5,58.7,51.7,46.1,53.8,49.8,45.8,99,94,79,29.92,29.78,12,0,12,0.00
2013-5-6,63.4,54.9,47.5,55.1,52.1,46.7,99,91,62,29.89,29.72,12,0,12,0.00
2013-5-7,71.0,57.9,46.9,60.0,53.7,46.4,100,87,58,29.98,29.88,8,0,8,0.00
2013-5-8,79.1,64.2,50.1,67.1,58.5,49.5,100,84,51,30.01,29.93,9,0,9,0.00
2013-5-9,80.7,69.2,53.2,65.9,60.4,52.4,100,76,49,30.06,29.92,6,0,6,0.00
2013-5-10,72.6,66.1,63.1,65.8,63.0,60.5,98,90,74,29.97,29.85,7,1,7,0.00
2013-5-11,69.2,62.9,54.1,64.1,58.8,52.4,99,87,66,30.01,29.87,8,1,8,0.00
2013-5-12,63.8,56.0,43.7,54.9,40.4,33.0,96,59,32,30.15,30.01,15,2,15,0.00
2013-5-13,69.2,55.3,38.5,50.1,41.7,36.1,98,65,32,30.26,30.10,7,0,7,0.00
2013-5-14,83.0,65.2,43.5,62.4,53.9,42.2,99,70,45,30.16,29.95,9,1,9,0.00
2013-5-15,83.6,70.2,55.6,63.4,57.8,53.1,95,68,36,30.08,29.92,6,0,6,0.00
2013-5-16,82.3,72.0,61.1,66.7,61.6,57.0,93,72,49,30.00,29.88,4,0,4,0.00
2013-5-17,70.4,65.2,60.6,69.8,63.8,57.1,99,95,86,30.03,29.93,5,0,5,0.00
2013-5-18,81.0,71.8,63.8,71.9,68.4,63.2,100,90,69,29.98,29.88,4,0,4,0.00
2013-5-19,86.0,74.4,67.4,77.2,70.0,64.4,100,87,63,29.96,29.87,10,1,10,0.00
2013-5-20,81.5,72.5,61.2,73.0,67.6,60.6,99,85,69,30.01,29.88,5,1,5,0.00
2013-5-21,83.4,72.6,65.7,74.5,68.4,63.8,99,87,69,29.99,29.80,10,0,10,0.00
2013-5-22,79.2,70.9,63.6,68.6,65.3,62.3,98,84,63,29.88,29.76,8,1,8,0.00
2013-5-23,77.3,68.8,59.8,66.5,60.9,56.8,100,78,54,30.05,29.85,12,1,12,0.00
2013-5-24,72.5,62.7,51.6,58.6,52.2,48.8,92,70,46,30.27,30.03,12,3,12,0.00
2013-5-25,78.2,61.3,46.0,56.1,49.5,42.3,99,70,30,30.33,30.12,10,1,10,0.00
2013-5-26,82.9,67.0,49.7,66.6,55.5,48.3,97,70,40,30.21,30.08,6,0,6,0.00
2013-5-27,84.8,71.8,55.0,66.0,60.5,53.9,99,71,43,30.12,29.99,6,1,6,0.00
2013-5-28,85.4,75.1,63.3,66.0,62.5,59.0,91,67,42,30.08,29.97,10,1,10,0.00
2013-5-29,86.2,76.5,62.5,70.1,65.6,60.4,95,71,52,30.10,29.98,6,1,6,0.00
2013-5-30,83.6,77.1,67.3,73.7,68.2,63.2,90,74,63,30.08,29.96,7,2,7,0.00
2013-5-31,83.1,77.3,70.8,72.8,69.4,66.5,87,77,67,30.03,29.91,9,2,9,0.00
2013-6-1,83.4,74.6,67.8,74.8,69.5,66.6,99,85,68,29.97,29.79,10,1,10,0.00
2013-6-2,79.3,71.5,65.1,71.3,68.2,62.9,100,90,71,29.91,29.83,4,0,4,0.00
2013-6-3,79.7,69.7,60.5,66.1,62.3,58.6,99,79,52,29.99,29.88,9,1,9,0.00
2013-6-4,83.9,69.7,56.2,68.4,61.1,55.4,99,77,48,30.01,29.91,8,0,8,0.00
2013-6-5,79.2,70.0,61.3,72.0,66.7,60.2,99,90,73,29.98,29.81,4,0,4,0.00
2013-6-6,79.1,72.0,67.7,73.3,69.3,66.8,98,91,76,29.82,29.70,5,0,5,0.00
2013-6-7,80.3,70.0,65.7,71.0,67.2,64.8,100,92,61,29.83,29.70,6,0,6,0.00
2013-6-8,82.1,70.8,62.2,70.2,64.3,59.7,100,82,50,29.99,29.82,4,0,4,0.00
2013-6-9,80.3,70.0,60.6,73.5,67.6,59.6,99,92,78,30.01,29.84,5,1,5,0.00
2013-6-10,83.0,73.1,68.4,73.2,69.8,67.1,99,90,61,29.91,29.79,7,1,7,0.00
2013-6-11,90.9,77.2,65.3,77.8,71.8,65.3,100,85,56,29.98,29.90,4,0,4,0.00
2013-6-12,91.0,82.5,73.5,79.4,75.1,72.6,100,80,58,30.01,29.84,5,0,5,0.00
2013-6-13,89.0,81.3,71.3,78.6,72.5,63.4,87,75,58,29.90,29.75,12,2,12,0.00
2013-6-14,83.6,73.0,61.7,65.4,61.2,58.3,93,69,44,29.99,29.88,13,2,13,0.00
2013-6-15,86.3,73.9,59.6,70.3,64.0,58.6,99,74,46,30.06,29.95,4,0,4,0.00
2013-6-16,86.7,76.6,65.2,75.3,69.9,64.2,99,81,61,30.04,29.92,5,0,5,0.02
2013-6-17,84.1,75.7,71.0,76.1,71.7,69.2,95,88,74,29.95,29.85,4,0,4,0.00
2013-6-18,84.3,74.0,68.3,71.4,69.2,66.4,100,86,59,29.91,29.77,14,2,14,0.01
2013-6-19,89.3,75.7,64.4,73.4,68.4,63.8,100,81,47,30.02,29.90,6,1,6,0.00
2013-6-20,85.5,73.3,64.6,74.6,68.5,64.0,99,86,60,30.13,30.02,6,0,6,0.00
2013-6-21,85.4,74.8,65.0,73.1,68.5,64.4,99,82,59,30.18,30.07,5,0,5,0.02
2013-6-22,86.8,76.8,65.6,72.8,69.0,65.2,100,79,51,30.17,30.01,5,0,5,0.01
2013-6-23,87.2,76.7,64.5,74.1,69.0,63.6,99,79,53,30.12,30.00,4,0,4,0.01
2013-6-24,87.6,74.8,67.2,76.8,71.0,66.4,100,89,61,30.13,30.03,6,0,6,0.03
2013-6-25,88.8,78.8,69.3,77.1,73.6,69.0,100,86,62,30.08,29.91,4,0,4,0.04
2013-6-26,89.9,81.6,72.5,76.8,73.7,71.3,98,78,58,29.96,29.77,6,0,6,0.01
2013-6-27,93.0,82.6,73.3,79.9,73.7,68.2,90,76,52,29.85,29.74,8,0,8,0.01
2013-6-28,89.8,78.7,69.5,76.2,71.4,65.9,98,80,49,29.78,29.61,8,0,8,0.00
2013-6-29,86.4,76.6,65.1,69.8,65.8,62.4,96,72,47,29.66,29.58,5,0,5,0.01
2013-6-30,84.5,72.9,60.9,69.2,65.2,59.8,98,78,55,29.75,29.64,5,0,5,0.00
2013-7-1,82.5,73.1,64.5,70.3,67.1,63.3,99,83,55,29.85,29.71,6,0,6,0.00
2013-7-2,82.5,72.4,63.5,69.2,65.6,62.3,99,81,57,29.99,29.83,6,0,6,0.00
2013-7-3,83.0,73.0,62.4,71.3,67.4,61.6,99,84,61,30.07,29.98,4,0,4,0.00
2013-7-4,70.7,68.6,66.4,69.5,68.3,66.2,100,99,96,30.08,30.02,4,0,4,0.00
2013-7-5,77.7,74.3,70.9,74.4,72.6,70.4,99,94,87,30.07,30.02,6,1,6,0.04
2013-7-6,73.0,69.5,66.9,71.4,68.9,66.9,100,98,92,30.11,30.02,4,0,4,76.75
2013-7-7,87.1,76.2,68.0,75.0,71.6,67.7,100,87,62,30.09,30.00,5,0,5,282.28
2013-7-8,89.8,77.5,69.4,78.4,73.5,69.4,100,89,66,30.13,30.01,4,0,4,176.90
2013-7-9,90.3,80.6,70.6,78.9,74.8,70.3,100,84,59,30.10,29.96,2,0,2,0.03
2013-7-10,90.0,80.6,71.6,82.1,76.1,71.2,100,87,69,30.00,29.80,17,0,17,0.04
2013-7-11,87.5,76.7,69.2,78.3,72.6,68.3,100,88,62,29.92,29.85,8,1,8,0.05
2013-7-12,82.7,74.7,66.1,70.9,65.9,60.6,95,76,49,29.98,29.89,12,2,12,0.04
2013-7-13,86.1,73.7,61.4,70.8,65.8,60.5,99,78,54,30.02,29.92,9,1,9,0.01
2013-7-14,84.8,75.8,67.9,77.2,72.0,66.6,100,88,68,30.12,30.00,10,0,10,0.02
2013-7-15,89.2,78.9,70.8,74.2,72.3,70.3,100,82,59,30.23,30.12,7,1,7,0.00
2013-7-16,92.8,80.0,69.2,76.9,73.2,68.5,100,81,55,30.28,30.17,7,0,7,0.01
2013-7-17,93.8,82.2,71.4,78.5,74.7,70.9,100,80,55,30.25,30.10,7,1,7,0.00
2013-7-18,90.7,81.3,75.0,78.4,75.3,72.5,98,83,60,30.13,29.98,12,0,12,0.00
2013-7-19,90.0,81.1,71.1,76.9,74.2,70.7,100,81,59,30.04,29.88,4,0,4,0.00
2013-7-20,90.2,79.7,70.3,77.4,73.4,69.7,100,83,56,29.95,29.80,4,0,4,0.00
2013-7-21,87.0,77.3,71.3,78.5,73.9,70.7,100,90,67,29.94,29.85,6,0,6,0.00
2013-7-22,76.7,73.4,71.0,74.2,72.1,70.0,100,96,88,29.90,29.83,4,0,4,0.00
2013-7-23,86.4,77.2,69.2,79.2,73.9,68.9,100,90,69,29.89,29.75,4,0,4,0.00
2013-7-24,85.0,76.3,69.3,77.1,71.8,65.7,98,86,70,29.90,29.77,6,0,6,0.00
2013-7-25,83.1,73.1,62.7,70.4,66.1,62.1,100,81,53,30.01,29.89,8,1,8,0.00
2013-7-26,84.1,73.5,61.5,72.4,66.8,60.9,100,81,57,30.03,29.93,4,0,4,0.00
2013-7-27,83.7,75.3,68.7,73.6,69.5,67.0,98,83,61,29.94,29.82,7,0,7,0.00
2013-7-28,78.0,70.9,61.9,67.8,60.9,53.6,94,72,51,30.05,29.90,8,1,8,0.00
2013-7-29,81.7,69.1,58.7,67.1,61.6,57.0,100,80,45,30.16,30.04,4,0,4,0.00
2013-7-30,84.1,72.1,61.8,74.2,67.9,60.9,99,88,59,30.16,30.05,5,0,5,0.00
2013-7-31,82.0,73.5,68.5,77.4,72.5,68.2,100,97,84,30.08,29.88,4,0,4,0.00
2013-8-1,83.8,75.2,67.7,75.0,71.1,66.8,100,88,63,29.99,29.91,8,1,8,0.00
2013-8-2,85.1,73.6,62.5,71.0,66.7,62.2,100,81,49,30.01,29.93,4,0,4,0.01
2013-8-3,79.2,73.7,68.6,75.6,71.7,67.8,99,94,85,30.02,29.93,2,0,2,0.01
2013-8-4,84.4,76.6,66.8,75.0,69.0,61.1,100,79,49,30.06,29.98,12,2,12,0.02
2013-8-5,82.7,71.8,62.2,71.6,66.2,61.1,99,84,54,30.05,29.91,4,0,4,0.02
2013-8-6,81.4,75.6,69.9,78.8,73.8,68.4,99,94,85,29.92,29.87,2,0,2,0.02
2013-8-7,79.8,75.6,72.4,76.3,74.4,72.1,100,96,85,29.98,29.86,4,0,4,0.00
2013-8-8,81.2,74.1,71.8,77.6,73.0,71.4,100,96,85,29.98,29.88,4,0,4,0.32
2013-8-9,88.1,77.6,70.8,81.5,75.3,70.6,100,93,78,30.00,29.90,5,0,5,0.13
2013-8-10,87.5,78.6,70.3,78.0,74.6,70.3,100,88,69,30.07,29.98,6,0,6,0.06
2013-8-11,88.4,78.0,73.7,79.8,75.8,73.1,100,93,73,30.09,29.99,8,0,8,0.02
2013-8-12,85.1,76.7,71.5,79.4,75.1,71.5,100,95,80,30.05,29.88,4,0,4,0.01
2013-8-13,84.5,76.0,69.6,76.3,72.1,69.6,100,89,68,29.94,29.85,7,0,7,0.01
2013-8-14,77.3,69.7,60.9,69.9,61.4,57.6,92,76,56,30.04,29.94,13,3,13,0.01
2013-8-15,80.7,68.4,55.7,69.4,62.5,54.8,99,83,61,30.05,29.96,6,1,6,0.02
2013-8-16,78.7,71.1,63.2,70.3,66.9,62.6,100,87,70,30.05,29.99,7,0,7,0.00
2013-8-17,77.7,71.5,66.6,70.0,68.1,66.3,100,90,73,30.09,30.01,5,0,5,0.00
2013-8-18,78.6,71.8,66.3,71.8,68.6,65.1,98,90,75,30.12,30.03,0,0,0,0.00
2013-8-19,83.9,75.4,67.5,74.0,70.9,66.9,100,87,65,30.10,29.99,1,0,0,0.00
2013-8-20,83.6,76.5,70.9,76.6,73.1,70.5,100,90,70,30.09,30.00,0,0,0,0.00
2013-8-21,84.0,75.5,67.4,77.4,72.6,67.1,100,91,73,30.13,30.04,0,0,0,0.00
2013-8-22,88.4,78.1,67.2,77.1,72.8,66.9,100,85,61,30.12,29.97,7,0,7,0.00
2013-8-23,89.7,77.4,67.5,76.9,72.1,67.2,100,85,54,30.05,29.93,8,0,8,0.00
2013-8-24,89.8,75.6,66.8,74.6,70.0,66.4,100,85,53,30.16,30.03,9,1,9,0.00
2013-8-25,86.1,75.3,65.4,71.7,68.3,64.8,100,81,55,30.28,30.16,5,0,5,0.00
2013-8-26,86.6,74.7,61.7,71.7,66.9,60.9,100,79,52,30.26,30.09,4,0,4,0.00
2013-8-27,85.6,74.8,62.8,75.5,69.0,62.1,100,84,60,30.11,30.00,4,0,4,0.00
2013-8-28,90.5,77.8,65.8,76.0,71.3,65.2,100,82,56,30.04,29.94,5,0,5,0.00
2013-8-29,92.5,80.6,69.2,76.8,73.3,68.6,100,81,58,30.00,29.89,7,0,7,0.00
2013-8-30,93.4,82.1,72.4,77.6,74.9,71.8,100,81,55,29.94,29.82,8,0,8,0.00
2013-8-31,89.9,78.6,68.8,80.0,73.8,68.2,100,86,65,29.90,29.78,7,0,7,0.01
2013-9-1,80.5,74.4,70.5,74.6,72.3,69.7,99,93,74,29.89,29.78,12,0,12,0.17
2013-9-2,84.3,76.8,70.0,76.8,73.3,69.4,99,90,73,29.90,29.79,4,0,4,0.00
2013-9-3,85.7,76.1,66.3,73.3,68.6,63.7,100,80,52,30.00,29.84,12,2,12,0.00
2013-9-4,84.2,71.9,61.3,68.1,64.4,60.7,100,80,52,30.11,29.99,9,1,9,0.00
2013-9-5,83.6,71.0,58.7,68.3,63.6,57.9,100,80,45,30.14,30.07,12,1,12,0.00
2013-9-6,87.5,73.2,60.2,69.4,65.2,59.1,100,79,48,30.14,30.01,8,1,8,0.00
2013-9-7,90.0,75.0,60.9,72.3,66.0,59.8,100,78,43,30.06,29.92,4,0,4,0.00
2013-9-8,89.7,76.4,65.8,75.1,69.6,64.6,100,82,52,29.98,29.89,7,0,7,0.00
2013-9-9,92.8,77.9,68.1,75.4,71.3,66.9,100,82,51,30.03,29.93,10,0,10,0.00
2013-9-10,89.9,76.1,69.1,76.2,72.3,68.5,100,89,60,30.13,30.02,10,0,10,0.24
2013-9-11,88.5,77.0,67.5,77.0,72.3,67.5,100,87,62,30.16,30.04,10,0,10,0.00
2013-9-12,87.6,74.4,68.0,76.3,71.8,67.5,100,92,65,30.04,29.86,10,0,10,0.01
2013-9-13,76.6,69.6,59.7,71.7,61.8,53.4,100,78,49,29.99,29.89,13,2,13,0.03
2013-9-14,74.3,62.4,50.5,57.0,52.9,48.6,94,74,46,30.08,29.98,13,2,13,0.00
2013-9-15,83.4,66.7,51.5,66.0,58.9,50.4,100,79,49,30.10,30.02,6,0,6,0.00
2013-9-16,83.2,69.2,56.7,65.9,61.6,55.9,100,79,44,30.14,30.06,12,1,12,0.00
2013-9-17,83.6,70.6,60.5,69.8,65.5,59.6,100,85,61,30.16,30.04,8,1,8,0.00
2013-9-18,83.5,73.0,67.2,72.2,66.7,62.8,97,81,65,30.14,30.02,7,1,7,0.00
2013-9-19,87.7,74.9,65.0,73.3,67.8,63.7,98,80,54,30.11,29.96,4,0,4,0.00
2013-9-20,86.9,75.1,64.0,73.0,67.8,63.1,99,80,56,30.00,29.77,6,1,6,0.08
2013-9-21,72.8,67.2,56.6,71.1,62.8,54.3,100,87,58,29.83,29.68,12,2,12,0.61
2013-9-22,74.3,62.2,50.9,59.0,54.5,50.1,100,78,51,29.92,29.83,12,2,12,0.04
2013-9-23,79.8,63.6,49.6,64.1,57.3,48.7,100,82,50,29.98,29.90,6,0,6,0.01
2013-9-24,80.4,67.0,54.3,68.2,62.5,53.5,100,87,61,29.97,29.82,5,1,5,0.00
2013-9-25,72.4,67.3,62.4,69.2,66.3,61.8,100,97,87,29.85,29.78,6,0,6,0.08
2013-9-26,78.5,68.2,58.9,69.2,64.8,57.8,100,90,63,30.00,29.84,7,1,7,0.04
2013-9-27,81.4,65.5,53.9,68.9,59.5,53.1,100,84,44,30.10,29.99,6,0,6,0.03
2013-9-28,79.5,66.1,54.0,64.1,59.0,53.2,100,80,50,30.16,30.03,7,0,7,0.01
2013-9-29,74.4,63.4,56.1,67.0,59.8,54.9,99,89,62,30.08,29.97,8,0,8,0.00
2013-9-30,77.2,67.1,57.4,64.5,61.3,56.6,99,83,59,30.03,29.93,9,1,9,0.00
2013-10-1,82.8,71.2,61.4,70.9,66.1,59.4,97,85,63,30.08,29.98,5,0,5,0.00
2013-10-2,80.8,72.6,68.3,71.9,69.0,66.4,95,89,72,30.11,30.01,4,0,4,0.00
2013-10-3,85.2,73.9,63.9,71.2,66.3,61.8,99,80,50,30.07,29.96,6,1,6,0.00
2013-10-4,84.9,71.2,60.8,72.5,66.6,59.9,99,87,63,30.09,30.00,5,0,5,0.00
2013-10-5,87.9,75.5,63.4,72.7,68.1,62.8,100,80,56,30.04,29.87,7,1,7,0.00
2013-10-6,77.5,68.1,55.8,73.1,65.1,54.9,98,91,79,29.92,29.77,8,1,8,0.04
2013-10-7,65.6,56.0,46.3,55.2,50.9,45.7,100,84,60,30.09,29.90,12,1,12,0.10
2013-10-8,71.4,57.9,45.8,55.5,50.6,44.7,99,79,51,30.15,30.05,14,2,14,0.07
2013-10-9,77.8,63.7,49.6,64.2,57.7,48.5,99,83,59,30.16,30.05,5,0,5,0.05
2013-10-10,79.0,65.6,56.5,65.8,59.6,54.8,99,83,53,30.12,29.99,7,1,7,0.02
2013-10-11,77.9,63.2,50.6,62.8,56.8,49.5,99,82,53,30.08,29.98,8,0,8,0.01
2013-10-12,80.2,64.0,49.3,67.1,58.1,48.2,99,83,52,30.09,30.00,4,0,4,0.00
2013-10-13,79.9,67.5,56.7,67.5,61.9,55.6,99,84,56,30.21,30.09,12,1,12,0.00
2013-10-14,79.0,66.7,56.0,65.7,61.5,54.8,99,85,58,30.21,30.07,12,2,12,0.00
2013-10-15,74.7,68.2,60.6,63.6,61.9,59.5,97,81,66,30.08,29.96,10,1,10,0.00
2013-10-16,69.5,65.2,61.9,65.5,62.8,60.6,98,92,83,29.98,29.88,6,1,6,0.00
2013-10-17,62.6,58.2,48.9,61.5,56.2,47.8,99,93,77,29.99,29.86,7,1,7,0.01
2013-10-18,64.3,52.2,45.0,56.8,48.9,44.0,99,90,58,30.09,29.95,6,0,6,0.00
2013-10-19,60.0,50.5,39.8,56.0,47.8,38.5,98,91,75,30.06,29.89,7,0,7,0.00
2013-10-20,64.1,46.2,32.9,48.3,38.9,31.9,99,80,36,30.12,30.01,5,0,5,0.01
2013-10-21,72.6,52.6,34.4,52.0,43.5,33.1,99,76,36,30.11,29.95,6,1,6,0.00
2013-10-22,58.2,52.0,45.4,53.3,49.5,44.1,97,92,76,30.04,29.85,7,0,7,0.00
2013-10-23,52.8,46.5,37.4,48.3,40.1,35.1,98,79,55,30.11,29.84,12,1,12,0.00
2013-10-24,55.2,47.2,36.3,45.3,40.2,29.5,95,78,59,30.35,30.10,1,0,1,0.01
2013-10-25,50.2,38.2,28.6,34.4,30.3,26.6,95,76,46,30.50,30.34,0,0,0,0.13
2013-10-26,61.7,45.2,25.2,45.4,33.9,23.5,97,69,39,30.34,30.08,0,0,0,0.13
2013-10-27,64.5,56.8,51.2,56.7,51.3,44.3,95,82,71,30.11,30.03,0,0,0,0.09
2013-10-28,66.6,58.0,48.7,60.7,55.5,47.6,97,92,78,30.24,30.06,0,0,0,0.01
2013-10-29,72.2,59.3,49.0,62.5,56.2,48.2,100,90,70,30.29,30.13,0,0,0,0.01
2013-10-30,78.7,67.9,57.5,64.5,60.0,55.9,97,78,50,30.19,30.03,0,0,0,0.00
2013-10-31,71.3,66.6,62.3,66.8,62.3,57.5,95,86,73,30.03,29.51,1,0,0,0.01
2013-11-1,71.1,60.1,46.0,64.0,51.6,43.8,98,76,43,29.82,29.63,0,0,0,0.10
2013-11-2,62.8,51.3,42.1,49.7,44.8,40.9,98,80,48,30.16,29.80,0,0,0,0.01
2013-11-3,59.2,45.4,34.6,43.1,38.2,33.2,99,78,45,30.32,30.15,0,0,0,0.00
2013-11-4,67.7,49.7,32.2,49.2,39.4,30.9,99,72,37,30.36,30.26,0,0,0,0.00
2013-11-5,71.1,57.0,42.9,48.5,43.8,39.1,90,63,43,30.37,30.21,0,0,0,0.00
2013-11-6,74.2,62.6,46.9,62.8,55.5,41.8,98,78,58,30.22,29.99,0,0,0,0.39
2013-11-7,55.7,45.3,32.2,52.1,38.4,30.6,97,79,43,30.33,30.08,0,0,0,0.09
2013-11-8,60.0,40.6,28.1,39.2,31.5,25.8,99,75,30,30.42,30.25,0,0,0,0.00
2013-11-9,59.8,44.3,28.1,41.8,35.5,26.6,98,74,46,30.30,30.18,0,0,0,0.00
2013-11-10,66.4,47.1,33.8,48.2,37.7,30.6,99,74,36,30.35,30.24,0,0,0,0.00
2013-11-11,71.1,47.7,29.3,42.5,33.4,22.9,97,66,17,30.32,30.14,0,0,0,0.00
2013-11-12,55.6,40.6,29.6,46.0,28.7,17.2,92,64,37,30.62,30.16,0,0,0,0.01
2013-11-13,48.4,32.2,22.7,27.3,22.3,19.6,93,70,35,30.71,30.46,0,0,0,0.00
2013-11-14,59.6,35.8,19.5,33.0,22.9,17.4,96,67,23,30.46,30.20,0,0,0,0.00
2013-11-15,58.8,46.4,29.6,51.7,40.3,25.4,98,81,57,30.21,30.08,0,0,0,0.10
2013-11-16,65.6,58.2,43.3,61.9,56.5,42.5,99,94,86,30.12,29.94,0,0,0,0.04
2013-11-17,70.1,65.9,60.6,68.4,63.6,59.2,98,92,85,29.95,29.71,0,0,0,0.37
2013-11-18,63.4,52.2,40.5,59.5,41.7,33.9,98,70,43,30.22,29.90,0,0,0,0.01
2013-11-19,52.6,44.1,36.1,34.2,31.6,28.3,85,62,42,30.28,30.18,0,0,0,0.00
2013-11-20,63.6,44.4,29.1,40.7,33.6,27.6,97,71,34,30.25,30.14,0,0,0,0.00
2013-11-21,66.2,53.2,36.6,55.1,48.1,34.1,97,84,64,30.29,30.17,0,0,0,0.00
2013-11-22,60.3,55.5,46.3,59.4,53.7,44.7,97,94,88,30.32,30.18,0,0,0,0.11
2013-11-23,46.4,41.4,27.0,44.7,33.2,17.4,94,74,35,30.54,30.29,0,0,0,0.00
2013-11-24,37.2,28.5,22.2,19.2,16.4,13.1,79,61,39,30.67,30.49,0,0,0,0.00
2013-11-25,41.9,33.5,24.2,34.9,25.6,17.1,97,74,46,30.49,30.17,0,0,0,0.17
2013-11-26,39.3,37.2,34.8,38.8,36.0,30.8,99,96,84,30.19,29.87,0,0,0,0.78
2013-11-27,35.3,28.7,17.0,31.4,19.8,13.5,87,70,48,30.39,29.97,0,0,0,0.00
2013-11-28,45.9,28.2,14.0,22.8,18.1,11.9,94,70,35,30.51,30.38,0,0,0,0.00
2013-11-29,54.3,32.8,19.4,31.3,24.3,17.5,95,75,38,30.61,30.46,0,0,0,0.00
2013-11-30,59.9,39.0,22.7,37.3,28.1,21.2,98,70,32,30.49,30.25,0,0,0,0.00
2013-12-1,54.2,45.4,29.1,42.1,36.9,26.0,92,73,57,30.25,29.94,0,0,0,0.00
2013-12-2,54.6,51.0,45.9,51.0,47.8,40.9,97,89,77,29.94,29.74,0,0,0,0.00
2013-12-3,58.9,53.8,45.9,56.3,52.5,44.6,99,95,90,29.81,29.74,0,0,0,0.00
2013-12-4,75.3,67.2,56.1,64.7,61.6,55.4,98,83,62,29.84,29.73,0,0,0,0.00
2013-12-5,70.4,55.8,38.0,67.4,53.9,37.2,97,94,84,30.09,29.83,0,0,0,1.17
2013-12-6,38.0,35.6,32.0,37.2,34.9,30.7,98,97,95,30.36,30.03,0,0,0,2.41
2013-12-7,33.3,31.9,30.3,31.4,29.8,28.7,95,92,88,30.52,30.33,0,0,0,0.00
2013-12-8,46.0,38.8,33.2,45.5,38.1,31.4,98,97,93,30.33,30.04,0,0,0,0.15
2013-12-9,43.9,36.3,31.8,43.3,34.7,30.0,98,94,88,30.23,30.08,0,0,0,0.04
2013-12-10,42.5,31.3,22.9,33.8,27.3,21.4,96,86,58,30.42,30.12,0,0,0,0.02
2013-12-11,48.3,31.7,18.4,35.1,25.5,17.0,97,80,45,30.55,30.38,0,0,0,0.01
2013-12-12,43.1,27.4,19.4,23.7,17.5,10.7,89,69,30,30.64,30.42,0,0,0,0.00
2013-12-13,47.9,32.5,15.8,34.1,23.5,13.9,95,73,34,30.42,30.06,0,0,0,0.00
2013-12-14,51.1,44.1,36.7,50.3,41.7,31.2,97,91,60,30.06,29.77,0,0,0,0.38
2013-12-15,36.6,33.9,29.4,35.3,30.8,27.1,95,88,82,30.24,30.00,0,0,0,0.00
2013-12-16,55.2,39.6,26.7,40.6,33.2,25.2,95,80,54,30.23,30.08,0,0,0,0.00
2013-12-17,59.4,43.8,27.8,42.5,34.1,24.9,93,70,48,30.29,30.05,0,0,0,0.00
2013-12-18,53.0,35.5,21.6,35.2,25.0,19.8,96,70,28,30.37,30.19,0,0,0,0.00
2013-12-19,64.3,51.1,35.4,45.7,34.7,26.4,76,54,44,30.23,30.04,12,2,12,0.00
2013-12-20,63.2,59.5,54.1,59.2,52.5,32.6,94,79,44,30.05,29.90,14,5,14,0.07
2013-12-21,74.8,67.5,61.6,68.3,63.9,59.0,96,88,71,29.90,29.59,22,7,22,0.87
2013-12-22,61.7,57.6,44.0,60.5,56.2,42.7,98,95,87,30.09,29.66,9,2,9,0.26
2013-12-23,44.0,36.9,29.7,42.9,32.3,24.9,96,83,67,30.45,30.09,12,3,12,0.01
2013-12-24,34.7,27.7,19.2,25.1,19.0,11.9,89,71,42,30.58,30.44,10,2,10,0.00
2013-12-25,47.6,30.4,16.4,29.8,22.1,14.5,95,74,39,30.48,30.31,8,1,8,0.00
2013-12-26,48.1,32.8,23.6,32.7,26.0,21.6,96,78,45,30.45,30.33,8,1,8,0.00
2013-12-27,57.5,34.1,20.4,35.5,25.0,18.9,97,75,29,30.49,30.37,5,0,5,0.00
2013-12-28,45.2,35.2,24.0,40.4,32.4,22.3,97,90,71,30.38,29.95,2,0,2,0.36
2013-12-29,55.5,44.3,35.1,47.1,40.9,31.3,98,89,64,30.14,29.91,13,1,13,0.31
2013-12-30,35.1,32.4,26.2,31.6,28.9,24.5,94,87,80,30.31,30.13,9,1,9,0.00
2013-12-31,47.8,29.6,19.3,32.5,24.5,17.6,97,83,50,30.49,30.29,6,0,6,0.00
2014-1-1,53.2,34.0,17.7,39.1,27.2,16.0,97,79,45,30.36,29.96,7,1,7,0.00
2014-1-2,45.7,34.1,21.9,44.8,30.7,14.3,97,87,72,30.36,29.83,16,4,16,0.24